sensor_id;sensor_type;location;lat;lon;timestamp;temperature;humidity
68257;DHT22;55069;51.568;4.656;2024-03-02T00:00:08;6.57;97.09
68257;DHT22;55069;51.568;4.656;2024-03-02T00:02:43;6.51;97.16
68257;DHT22;55069;51.568;4.656;2024-03-02T00:05:20;6.50;97.30
68257;DHT22;55069;51.568;4.656;2024-03-02T00:07:58;6.47;97.48
68257;DHT22;55069;51.568;4.656;2024-03-02T00:10:26;6.46;97.65
68257;DHT22;55069;51.568;4.656;2024-03-02T00:12:56;6.51;97.53
68257;DHT22;55069;51.568;4.656;2024-03-02T00:15:47;6.51;97.63
68257;DHT22;55069;51.568;4.656;2024-03-02T00:18:31;6.47;97.67
68257;DHT22;55069;51.568;4.656;2024-03-02T00:20:58;6.44;97.79
68257;DHT22;55069;51.568;4.656;2024-03-02T00:23:27;6.47;97.70
68257;DHT22;55069;51.568;4.656;2024-03-02T00:25:54;6.50;97.76
68257;DHT22;55069;51.568;4.656;2024-03-02T00:28:24;6.49;97.62
68257;DHT22;55069;51.568;4.656;2024-03-02T00:33:16;6.41;97.61
68257;DHT22;55069;51.568;4.656;2024-03-02T00:35:44;6.40;97.70
68257;DHT22;55069;51.568;4.656;2024-03-02T00:38:10;6.32;97.75
68257;DHT22;55069;51.568;4.656;2024-03-02T00:40:35;6.33;97.83
68257;DHT22;55069;51.568;4.656;2024-03-02T00:43:02;6.33;97.82
68257;DHT22;55069;51.568;4.656;2024-03-02T00:45:28;6.32;97.75
68257;DHT22;55069;51.568;4.656;2024-03-02T00:47:54;6.32;97.59
68257;DHT22;55069;51.568;4.656;2024-03-02T00:50:20;6.32;97.60
68257;DHT22;55069;51.568;4.656;2024-03-02T00:52:46;6.29;97.67
68257;DHT22;55069;51.568;4.656;2024-03-02T00:55:15;6.29;97.60
68257;DHT22;55069;51.568;4.656;2024-03-02T00:57:41;6.28;97.70
68257;DHT22;55069;51.568;4.656;2024-03-02T01:00:07;6.28;97.67
68257;DHT22;55069;51.568;4.656;2024-03-02T01:02:35;6.25;97.49
68257;DHT22;55069;51.568;4.656;2024-03-02T01:05:01;6.26;97.54
68257;DHT22;55069;51.568;4.656;2024-03-02T01:07:27;6.25;97.64
68257;DHT22;55069;51.568;4.656;2024-03-02T01:09:52;6.22;97.62
68257;DHT22;55069;51.568;4.656;2024-03-02T01:12:20;6.23;97.48
68257;DHT22;55069;51.568;4.656;2024-03-02T01:14:45;6.20;97.54
68257;DHT22;55069;51.568;4.656;2024-03-02T01:17:11;6.23;97.69
68257;DHT22;55069;51.568;4.656;2024-03-02T01:19:37;6.19;97.68
68257;DHT22;55069;51.568;4.656;2024-03-02T01:22:04;6.25;97.76
68257;DHT22;55069;51.568;4.656;2024-03-02T01:24:29;6.18;97.57
68257;DHT22;55069;51.568;4.656;2024-03-02T01:26:55;6.22;97.61
68257;DHT22;55069;51.568;4.656;2024-03-02T01:29:21;6.18;97.72
68257;DHT22;55069;51.568;4.656;2024-03-02T01:31:46;6.16;97.72
68257;DHT22;55069;51.568;4.656;2024-03-02T01:34:13;6.16;97.80
68257;DHT22;55069;51.568;4.656;2024-03-02T01:36:40;6.18;97.72
68257;DHT22;55069;51.568;4.656;2024-03-02T01:39:05;6.15;97.62
68257;DHT22;55069;51.568;4.656;2024-03-02T01:41:35;6.15;97.66
68257;DHT22;55069;51.568;4.656;2024-03-02T01:44:01;6.09;97.74
68257;DHT22;55069;51.568;4.656;2024-03-02T01:46:26;6.08;97.89
68257;DHT22;55069;51.568;4.656;2024-03-02T01:48:52;6.05;97.75
68257;DHT22;55069;51.568;4.656;2024-03-02T01:51:18;6.01;97.68
68257;DHT22;55069;51.568;4.656;2024-03-02T01:53:43;5.98;97.67
68257;DHT22;55069;51.568;4.656;2024-03-02T01:56:09;5.99;97.72
68257;DHT22;55069;51.568;4.656;2024-03-02T01:58:35;6.01;97.80
68257;DHT22;55069;51.568;4.656;2024-03-02T02:01:01;6.02;97.91
68257;DHT22;55069;51.568;4.656;2024-03-02T02:03:27;6.01;97.73
68257;DHT22;55069;51.568;4.656;2024-03-02T02:05:53;5.98;97.79
68257;DHT22;55069;51.568;4.656;2024-03-02T02:08:19;6.01;97.78
68257;DHT22;55069;51.568;4.656;2024-03-02T02:10:44;5.99;97.45
68257;DHT22;55069;51.568;4.656;2024-03-02T02:13:10;6.02;97.36
68257;DHT22;55069;51.568;4.656;2024-03-02T02:15:36;6.05;97.57
68257;DHT22;55069;51.568;4.656;2024-03-02T02:18:02;6.06;97.29
68257;DHT22;55069;51.568;4.656;2024-03-02T02:20:29;6.05;97.14
68257;DHT22;55069;51.568;4.656;2024-03-02T02:25:20;6.11;97.12
68257;DHT22;55069;51.568;4.656;2024-03-02T02:27:46;6.15;96.75
68257;DHT22;55069;51.568;4.656;2024-03-02T02:30:12;6.15;96.92
68257;DHT22;55069;51.568;4.656;2024-03-02T02:32:38;6.12;96.95
68257;DHT22;55069;51.568;4.656;2024-03-02T02:35:04;6.11;96.89
68257;DHT22;55069;51.568;4.656;2024-03-02T02:37:30;6.16;96.90
68257;DHT22;55069;51.568;4.656;2024-03-02T02:39:55;6.16;96.98
68257;DHT22;55069;51.568;4.656;2024-03-02T02:42:21;6.18;96.88
68257;DHT22;55069;51.568;4.656;2024-03-02T02:44:47;6.13;96.76
68257;DHT22;55069;51.568;4.656;2024-03-02T02:47:13;6.13;96.78
68257;DHT22;55069;51.568;4.656;2024-03-02T02:49:39;6.11;96.67
68257;DHT22;55069;51.568;4.656;2024-03-02T02:52:04;6.02;96.65
68257;DHT22;55069;51.568;4.656;2024-03-02T02:54:30;5.94;96.71
68257;DHT22;55069;51.568;4.656;2024-03-02T02:56:55;5.82;96.88
68257;DHT22;55069;51.568;4.656;2024-03-02T02:59:21;5.71;97.21
68257;DHT22;55069;51.568;4.656;2024-03-02T03:01:47;5.70;97.19
68257;DHT22;55069;51.568;4.656;2024-03-02T03:04:12;5.61;97.44
68257;DHT22;55069;51.568;4.656;2024-03-02T03:06:38;5.50;97.44
68257;DHT22;55069;51.568;4.656;2024-03-02T03:09:04;5.48;97.53
68257;DHT22;55069;51.568;4.656;2024-03-02T03:11:29;5.40;97.68
68257;DHT22;55069;51.568;4.656;2024-03-02T03:13:55;5.40;97.76
68257;DHT22;55069;51.568;4.656;2024-03-02T03:16:21;5.37;97.78
68257;DHT22;55069;51.568;4.656;2024-03-02T03:18:47;5.36;97.81
68257;DHT22;55069;51.568;4.656;2024-03-02T03:21:16;5.26;98.00
68257;DHT22;55069;51.568;4.656;2024-03-02T03:23:42;5.26;97.78
68257;DHT22;55069;51.568;4.656;2024-03-02T03:26:08;5.18;97.88
68257;DHT22;55069;51.568;4.656;2024-03-02T03:28:33;5.16;97.95
68257;DHT22;55069;51.568;4.656;2024-03-02T03:30:59;5.20;97.95
68257;DHT22;55069;51.568;4.656;2024-03-02T03:33:24;5.12;98.05
68257;DHT22;55069;51.568;4.656;2024-03-02T03:35:50;5.06;98.12
68257;DHT22;55069;51.568;4.656;2024-03-02T03:38:16;5.11;98.28
68257;DHT22;55069;51.568;4.656;2024-03-02T03:40:41;5.13;98.18
68257;DHT22;55069;51.568;4.656;2024-03-02T03:43:07;5.12;98.14
68257;DHT22;55069;51.568;4.656;2024-03-02T03:45:33;5.08;98.12
68257;DHT22;55069;51.568;4.656;2024-03-02T03:47:59;5.12;98.15
68257;DHT22;55069;51.568;4.656;2024-03-02T03:50:25;5.05;98.18
68257;DHT22;55069;51.568;4.656;2024-03-02T03:52:51;5.08;98.20
68257;DHT22;55069;51.568;4.656;2024-03-02T03:55:16;5.05;98.22
68257;DHT22;55069;51.568;4.656;2024-03-02T03:57:42;5.06;98.29
68257;DHT22;55069;51.568;4.656;2024-03-02T04:00:08;5.05;98.16
68257;DHT22;55069;51.568;4.656;2024-03-02T04:02:38;5.04;98.22
68257;DHT22;55069;51.568;4.656;2024-03-02T04:05:04;5.09;98.03
68257;DHT22;55069;51.568;4.656;2024-03-02T04:07:35;5.13;98.19
68257;DHT22;55069;51.568;4.656;2024-03-02T04:10:10;5.13;98.16
68257;DHT22;55069;51.568;4.656;2024-03-02T04:12:38;5.25;98.05
68257;DHT22;55069;51.568;4.656;2024-03-02T04:15:07;5.40;97.41
68257;DHT22;55069;51.568;4.656;2024-03-02T04:17:33;5.43;97.13
68257;DHT22;55069;51.568;4.656;2024-03-02T04:19:59;5.48;97.16
68257;DHT22;55069;51.568;4.656;2024-03-02T04:22:26;5.58;96.83
68257;DHT22;55069;51.568;4.656;2024-03-02T04:24:52;5.64;96.58
68257;DHT22;55069;51.568;4.656;2024-03-02T04:27:18;5.71;96.38
68257;DHT22;55069;51.568;4.656;2024-03-02T04:29:44;5.78;96.17
68257;DHT22;55069;51.568;4.656;2024-03-02T04:32:09;5.78;95.91
68257;DHT22;55069;51.568;4.656;2024-03-02T04:34:35;5.82;95.58
68257;DHT22;55069;51.568;4.656;2024-03-02T04:37:01;5.78;95.84
68257;DHT22;55069;51.568;4.656;2024-03-02T04:39:26;5.79;95.69
68257;DHT22;55069;51.568;4.656;2024-03-02T04:41:52;5.71;95.70
68257;DHT22;55069;51.568;4.656;2024-03-02T04:44:18;5.61;95.66
68257;DHT22;55069;51.568;4.656;2024-03-02T04:46:43;5.60;95.43
68257;DHT22;55069;51.568;4.656;2024-03-02T04:49:09;5.53;95.58
68257;DHT22;55069;51.568;4.656;2024-03-02T04:51:35;5.51;95.52
68257;DHT22;55069;51.568;4.656;2024-03-02T04:54:00;5.43;95.55
68257;DHT22;55069;51.568;4.656;2024-03-02T04:56:26;5.32;95.88
68257;DHT22;55069;51.568;4.656;2024-03-02T04:59:06;5.32;95.92
68257;DHT22;55069;51.568;4.656;2024-03-02T05:01:32;5.20;96.06
68257;DHT22;55069;51.568;4.656;2024-03-02T05:03:59;5.15;96.17
68257;DHT22;55069;51.568;4.656;2024-03-02T05:06:24;5.20;96.25
68257;DHT22;55069;51.568;4.656;2024-03-02T05:08:50;5.25;96.11
68257;DHT22;55069;51.568;4.656;2024-03-02T05:11:15;5.22;96.33
68257;DHT22;55069;51.568;4.656;2024-03-02T05:14:00;5.27;96.25
68257;DHT22;55069;51.568;4.656;2024-03-02T05:16:25;5.32;96.34
68257;DHT22;55069;51.568;4.656;2024-03-02T05:18:51;5.42;96.37
68257;DHT22;55069;51.568;4.656;2024-03-02T05:21:17;5.48;96.24
68257;DHT22;55069;51.568;4.656;2024-03-02T05:23:42;5.58;95.95
68257;DHT22;55069;51.568;4.656;2024-03-02T05:26:08;5.58;95.78
68257;DHT22;55069;51.568;4.656;2024-03-02T05:28:37;5.61;95.77
68257;DHT22;55069;51.568;4.656;2024-03-02T05:31:02;5.65;95.50
68257;DHT22;55069;51.568;4.656;2024-03-02T05:33:28;5.64;95.49
68257;DHT22;55069;51.568;4.656;2024-03-02T05:35:55;5.67;95.11
68257;DHT22;55069;51.568;4.656;2024-03-02T05:38:22;5.64;95.17
68257;DHT22;55069;51.568;4.656;2024-03-02T05:40:48;5.67;94.99
68257;DHT22;55069;51.568;4.656;2024-03-02T05:43:13;5.67;94.96
68257;DHT22;55069;51.568;4.656;2024-03-02T05:45:39;5.63;94.91
68257;DHT22;55069;51.568;4.656;2024-03-02T05:48:07;5.51;94.94
68257;DHT22;55069;51.568;4.656;2024-03-02T05:50:33;5.43;94.84
68257;DHT22;55069;51.568;4.656;2024-03-02T05:52:59;5.36;94.87
68257;DHT22;55069;51.568;4.656;2024-03-02T05:55:24;5.30;94.85
68257;DHT22;55069;51.568;4.656;2024-03-02T05:57:50;5.25;94.98
68257;DHT22;55069;51.568;4.656;2024-03-02T06:00:38;5.16;95.06
68257;DHT22;55069;51.568;4.656;2024-03-02T06:03:04;5.13;95.30
68257;DHT22;55069;51.568;4.656;2024-03-02T06:05:31;5.12;95.41
68257;DHT22;55069;51.568;4.656;2024-03-02T06:07:57;5.09;95.60
68257;DHT22;55069;51.568;4.656;2024-03-02T06:10:22;5.06;95.66
68257;DHT22;55069;51.568;4.656;2024-03-02T06:12:48;5.18;95.27
68257;DHT22;55069;51.568;4.656;2024-03-02T06:15:14;5.15;95.32
68257;DHT22;55069;51.568;4.656;2024-03-02T06:17:39;5.11;95.35
68257;DHT22;55069;51.568;4.656;2024-03-02T06:20:05;5.08;95.50
68257;DHT22;55069;51.568;4.656;2024-03-02T06:22:33;5.09;95.64
68257;DHT22;55069;51.568;4.656;2024-03-02T06:24:59;5.00;95.70
68257;DHT22;55069;51.568;4.656;2024-03-02T06:27:24;5.00;95.91
68257;DHT22;55069;51.568;4.656;2024-03-02T06:29:50;5.02;95.74
68257;DHT22;55069;51.568;4.656;2024-03-02T06:32:16;4.98;95.76
68257;DHT22;55069;51.568;4.656;2024-03-02T06:34:42;4.95;95.96
68257;DHT22;55069;51.568;4.656;2024-03-02T06:37:08;4.85;96.04
68257;DHT22;55069;51.568;4.656;2024-03-02T06:39:33;4.81;96.25
68257;DHT22;55069;51.568;4.656;2024-03-02T06:42:00;4.92;96.35
68257;DHT22;55069;51.568;4.656;2024-03-02T06:44:25;4.91;96.34
68257;DHT22;55069;51.568;4.656;2024-03-02T06:46:51;4.93;96.34
68257;DHT22;55069;51.568;4.656;2024-03-02T06:49:17;4.95;96.23
68257;DHT22;55069;51.568;4.656;2024-03-02T06:51:49;4.96;96.31
68257;DHT22;55069;51.568;4.656;2024-03-02T06:54:15;5.00;96.26
68257;DHT22;55069;51.568;4.656;2024-03-02T06:56:41;4.93;96.23
68257;DHT22;55069;51.568;4.656;2024-03-02T06:59:06;5.00;95.95
68257;DHT22;55069;51.568;4.656;2024-03-02T07:01:32;5.13;95.57
68257;DHT22;55069;51.568;4.656;2024-03-02T07:03:58;5.11;95.61
68257;DHT22;55069;51.568;4.656;2024-03-02T07:06:23;5.05;95.59
68257;DHT22;55069;51.568;4.656;2024-03-02T07:08:50;5.09;95.73
68257;DHT22;55069;51.568;4.656;2024-03-02T07:11:17;5.09;95.48
68257;DHT22;55069;51.568;4.656;2024-03-02T07:13:42;5.02;95.50
68257;DHT22;55069;51.568;4.656;2024-03-02T07:16:08;4.99;95.91
68257;DHT22;55069;51.568;4.656;2024-03-02T07:18:46;5.05;95.85
68257;DHT22;55069;51.568;4.656;2024-03-02T07:21:17;5.18;95.53
68257;DHT22;55069;51.568;4.656;2024-03-02T07:23:44;5.13;95.44
68257;DHT22;55069;51.568;4.656;2024-03-02T07:26:10;5.13;95.46
68257;DHT22;55069;51.568;4.656;2024-03-02T07:28:35;5.15;95.56
68257;DHT22;55069;51.568;4.656;2024-03-02T07:31:02;5.15;95.43
68257;DHT22;55069;51.568;4.656;2024-03-02T07:33:30;5.25;95.07
68257;DHT22;55069;51.568;4.656;2024-03-02T07:35:56;5.23;95.13
68257;DHT22;55069;51.568;4.656;2024-03-02T07:38:22;5.26;95.13
68257;DHT22;55069;51.568;4.656;2024-03-02T07:40:49;5.36;94.68
68257;DHT22;55069;51.568;4.656;2024-03-02T07:43:21;5.43;94.45
68257;DHT22;55069;51.568;4.656;2024-03-02T07:45:47;5.47;94.34
68257;DHT22;55069;51.568;4.656;2024-03-02T07:48:13;5.53;94.04
68257;DHT22;55069;51.568;4.656;2024-03-02T07:50:39;5.48;94.55
68257;DHT22;55069;51.568;4.656;2024-03-02T07:53:05;5.54;94.54
68257;DHT22;55069;51.568;4.656;2024-03-02T07:55:32;5.55;94.22
68257;DHT22;55069;51.568;4.656;2024-03-02T07:58:02;5.64;94.29
68257;DHT22;55069;51.568;4.656;2024-03-02T08:00:29;5.79;93.46
68257;DHT22;55069;51.568;4.656;2024-03-02T08:02:55;5.90;93.34
68257;DHT22;55069;51.568;4.656;2024-03-02T08:05:21;5.97;92.83
68257;DHT22;55069;51.568;4.656;2024-03-02T08:07:47;6.03;92.56
68257;DHT22;55069;51.568;4.656;2024-03-02T08:10:13;6.11;92.19
68257;DHT22;55069;51.568;4.656;2024-03-02T08:12:39;6.18;92.16
68257;DHT22;55069;51.568;4.656;2024-03-02T08:15:05;6.28;91.74
68257;DHT22;55069;51.568;4.656;2024-03-02T08:17:31;6.30;91.38
68257;DHT22;55069;51.568;4.656;2024-03-02T08:19:57;6.37;91.20
68257;DHT22;55069;51.568;4.656;2024-03-02T08:22:24;6.46;91.45
68257;DHT22;55069;51.568;4.656;2024-03-02T08:24:54;6.50;91.42
68257;DHT22;55069;51.568;4.656;2024-03-02T08:27:20;6.58;91.08
68257;DHT22;55069;51.568;4.656;2024-03-02T08:29:45;6.67;90.98
68257;DHT22;55069;51.568;4.656;2024-03-02T08:32:13;6.80;90.54
68257;DHT22;55069;51.568;4.656;2024-03-02T08:34:38;6.88;90.89
68257;DHT22;55069;51.568;4.656;2024-03-02T08:37:04;6.95;89.96
68257;DHT22;55069;51.568;4.656;2024-03-02T08:39:30;7.01;89.31
68257;DHT22;55069;51.568;4.656;2024-03-02T08:41:56;7.15;89.20
68257;DHT22;55069;51.568;4.656;2024-03-02T08:44:22;7.28;89.28
68257;DHT22;55069;51.568;4.656;2024-03-02T08:46:47;7.30;89.13
68257;DHT22;55069;51.568;4.656;2024-03-02T08:49:13;7.37;88.17
68257;DHT22;55069;51.568;4.656;2024-03-02T08:51:39;7.46;88.65
68257;DHT22;55069;51.568;4.656;2024-03-02T08:54:05;7.54;88.87
68257;DHT22;55069;51.568;4.656;2024-03-02T08:56:31;7.60;87.74
68257;DHT22;55069;51.568;4.656;2024-03-02T08:58:57;7.69;88.02
68257;DHT22;55069;51.568;4.656;2024-03-02T09:01:23;7.78;87.88
68257;DHT22;55069;51.568;4.656;2024-03-02T09:03:49;7.84;87.88
68257;DHT22;55069;51.568;4.656;2024-03-02T09:06:15;7.94;88.64
68257;DHT22;55069;51.568;4.656;2024-03-02T09:08:45;8.02;87.16
68257;DHT22;55069;51.568;4.656;2024-03-02T09:11:11;8.15;87.03
68257;DHT22;55069;51.568;4.656;2024-03-02T09:13:37;8.18;86.77
68257;DHT22;55069;51.568;4.656;2024-03-02T09:16:04;8.20;85.91
68257;DHT22;55069;51.568;4.656;2024-03-02T09:18:31;8.24;86.04
68257;DHT22;55069;51.568;4.656;2024-03-02T09:20:56;8.29;85.76
68257;DHT22;55069;51.568;4.656;2024-03-02T09:23:22;8.38;85.35
68257;DHT22;55069;51.568;4.656;2024-03-02T09:25:47;8.48;85.39
68257;DHT22;55069;51.568;4.656;2024-03-02T09:28:15;8.57;86.38
68257;DHT22;55069;51.568;4.656;2024-03-02T09:30:41;8.57;84.62
68257;DHT22;55069;51.568;4.656;2024-03-02T09:33:06;8.66;83.77
68257;DHT22;55069;51.568;4.656;2024-03-02T09:35:32;8.67;83.59
68257;DHT22;55069;51.568;4.656;2024-03-02T09:37:58;8.74;84.38
68257;DHT22;55069;51.568;4.656;2024-03-02T09:40:23;8.76;82.75
68257;DHT22;55069;51.568;4.656;2024-03-02T09:42:49;8.91;83.48
68257;DHT22;55069;51.568;4.656;2024-03-02T09:45:27;8.98;83.77
68257;DHT22;55069;51.568;4.656;2024-03-02T09:47:52;9.05;82.00
68257;DHT22;55069;51.568;4.656;2024-03-02T09:50:18;9.10;82.88
68257;DHT22;55069;51.568;4.656;2024-03-02T09:52:48;9.18;82.43
68257;DHT22;55069;51.568;4.656;2024-03-02T09:55:15;9.27;81.98
68257;DHT22;55069;51.568;4.656;2024-03-02T09:57:42;9.36;81.74
68257;DHT22;55069;51.568;4.656;2024-03-02T10:00:08;9.39;81.57
68257;DHT22;55069;51.568;4.656;2024-03-02T10:02:40;9.52;80.45
68257;DHT22;55069;51.568;4.656;2024-03-02T10:05:08;9.55;78.41
68257;DHT22;55069;51.568;4.656;2024-03-02T10:07:33;9.62;78.98
68257;DHT22;55069;51.568;4.656;2024-03-02T10:10:12;9.69;78.16
68257;DHT22;55069;51.568;4.656;2024-03-02T10:12:38;9.72;77.76
68257;DHT22;55069;51.568;4.656;2024-03-02T10:15:04;9.86;79.42
68257;DHT22;55069;51.568;4.656;2024-03-02T10:17:31;9.96;79.82
68257;DHT22;55069;51.568;4.656;2024-03-02T10:19:57;10.03;78.77
68257;DHT22;55069;51.568;4.656;2024-03-02T10:22:23;10.10;77.65
68257;DHT22;55069;51.568;4.656;2024-03-02T10:24:49;10.04;78.38
68257;DHT22;55069;51.568;4.656;2024-03-02T10:27:16;10.10;78.89
68257;DHT22;55069;51.568;4.656;2024-03-02T10:29:47;10.35;79.31
68257;DHT22;55069;51.568;4.656;2024-03-02T10:32:16;10.45;75.95
68257;DHT22;55069;51.568;4.656;2024-03-02T10:34:44;10.53;76.04
68257;DHT22;55069;51.568;4.656;2024-03-02T10:37:11;10.73;75.83
68257;DHT22;55069;51.568;4.656;2024-03-02T10:39:37;10.71;74.50
68257;DHT22;55069;51.568;4.656;2024-03-02T10:42:06;10.92;74.86
68257;DHT22;55069;51.568;4.656;2024-03-02T10:44:32;10.89;73.56
68257;DHT22;55069;51.568;4.656;2024-03-02T10:47:03;10.92;73.90
68257;DHT22;55069;51.568;4.656;2024-03-02T10:49:30;11.00;73.21
68257;DHT22;55069;51.568;4.656;2024-03-02T10:52:00;11.24;73.75
68257;DHT22;55069;51.568;4.656;2024-03-02T10:54:26;11.32;72.74
68257;DHT22;55069;51.568;4.656;2024-03-02T10:56:55;11.24;71.42
68257;DHT22;55069;51.568;4.656;2024-03-02T11:01:59;11.57;72.93
68257;DHT22;55069;51.568;4.656;2024-03-02T11:04:26;11.68;73.41
68257;DHT22;55069;51.568;4.656;2024-03-02T11:06:59;11.85;75.23
68257;DHT22;55069;51.568;4.656;2024-03-02T11:09:27;11.90;73.41
68257;DHT22;55069;51.568;4.656;2024-03-02T11:12:13;11.81;73.35
68257;DHT22;55069;51.568;4.656;2024-03-02T11:14:41;11.69;73.09
68257;DHT22;55069;51.568;4.656;2024-03-02T11:17:15;11.64;73.01
68257;DHT22;55069;51.568;4.656;2024-03-02T11:19:43;11.42;74.13
68257;DHT22;55069;51.568;4.656;2024-03-02T11:22:09;11.31;72.49
68257;DHT22;55069;51.568;4.656;2024-03-02T11:24:35;11.61;73.40
68257;DHT22;55069;51.568;4.656;2024-03-02T11:27:04;11.69;72.81
68257;DHT22;55069;51.568;4.656;2024-03-02T11:29:47;11.87;73.60
68257;DHT22;55069;51.568;4.656;2024-03-02T11:32:15;11.87;71.85
68257;DHT22;55069;51.568;4.656;2024-03-02T11:34:43;11.85;70.91
68257;DHT22;55069;51.568;4.656;2024-03-02T11:37:15;11.85;72.70
68257;DHT22;55069;51.568;4.656;2024-03-02T11:39:43;11.93;72.51
68257;DHT22;55069;51.568;4.656;2024-03-02T11:42:11;11.93;71.76
68257;DHT22;55069;51.568;4.656;2024-03-02T11:44:38;11.99;70.47
68257;DHT22;55069;51.568;4.656;2024-03-02T11:47:10;11.97;72.81
68257;DHT22;55069;51.568;4.656;2024-03-02T11:49:38;12.05;71.87
68257;DHT22;55069;51.568;4.656;2024-03-02T11:52:08;12.00;71.56
68257;DHT22;55069;51.568;4.656;2024-03-02T11:54:37;12.30;71.49
68257;DHT22;55069;51.568;4.656;2024-03-02T11:57:08;12.48;71.38
68257;DHT22;55069;51.568;4.656;2024-03-02T11:59:34;12.55;71.38
68257;DHT22;55069;51.568;4.656;2024-03-02T12:02:00;12.62;68.52
68257;DHT22;55069;51.568;4.656;2024-03-02T12:04:26;12.92;70.92
68257;DHT22;55069;51.568;4.656;2024-03-02T12:06:56;13.39;70.93
68257;DHT22;55069;51.568;4.656;2024-03-02T12:09:28;13.57;69.13
68257;DHT22;55069;51.568;4.656;2024-03-02T12:12:10;13.48;66.79
68257;DHT22;55069;51.568;4.656;2024-03-02T12:14:38;13.51;68.03
68257;DHT22;55069;51.568;4.656;2024-03-02T12:17:05;13.51;66.97
68257;DHT22;55069;51.568;4.656;2024-03-02T12:19:31;13.50;67.32
68257;DHT22;55069;51.568;4.656;2024-03-02T12:21:57;13.61;67.73
68257;DHT22;55069;51.568;4.656;2024-03-02T12:24:26;13.48;67.00
68257;DHT22;55069;51.568;4.656;2024-03-02T12:26:52;13.29;67.82
68257;DHT22;55069;51.568;4.656;2024-03-02T12:29:19;13.08;67.54
68257;DHT22;55069;51.568;4.656;2024-03-02T12:31:50;13.26;69.58
68257;DHT22;55069;51.568;4.656;2024-03-02T12:34:17;13.02;66.58
68257;DHT22;55069;51.568;4.656;2024-03-02T12:37:05;12.89;68.71
68257;DHT22;55069;51.568;4.656;2024-03-02T12:39:30;13.10;70.40
68257;DHT22;55069;51.568;4.656;2024-03-02T12:41:58;13.22;68.27
68257;DHT22;55069;51.568;4.656;2024-03-02T12:44:24;13.22;67.47
68257;DHT22;55069;51.568;4.656;2024-03-02T12:46:49;12.89;66.87
68257;DHT22;55069;51.568;4.656;2024-03-02T12:49:15;12.81;67.79
68257;DHT22;55069;51.568;4.656;2024-03-02T12:51:42;12.84;68.92
68257;DHT22;55069;51.568;4.656;2024-03-02T12:54:09;12.78;68.72
68257;DHT22;55069;51.568;4.656;2024-03-02T12:56:36;12.74;68.61
68257;DHT22;55069;51.568;4.656;2024-03-02T12:59:04;12.69;67.28
68257;DHT22;55069;51.568;4.656;2024-03-02T13:01:32;12.79;68.85
68257;DHT22;55069;51.568;4.656;2024-03-02T13:03:58;12.96;69.25
68257;DHT22;55069;51.568;4.656;2024-03-02T13:06:25;13.03;69.67
68257;DHT22;55069;51.568;4.656;2024-03-02T13:08:53;12.93;70.58
68257;DHT22;55069;51.568;4.656;2024-03-02T13:11:22;12.95;69.10
68257;DHT22;55069;51.568;4.656;2024-03-02T13:13:49;12.98;69.20
68257;DHT22;55069;51.568;4.656;2024-03-02T13:16:16;12.95;68.74
68257;DHT22;55069;51.568;4.656;2024-03-02T13:18:44;12.77;69.76
68257;DHT22;55069;51.568;4.656;2024-03-02T13:21:10;12.41;68.89
68257;DHT22;55069;51.568;4.656;2024-03-02T13:23:36;12.43;70.68
68257;DHT22;55069;51.568;4.656;2024-03-02T13:26:02;12.40;69.75
68257;DHT22;55069;51.568;4.656;2024-03-02T13:28:28;12.47;70.18
68257;DHT22;55069;51.568;4.656;2024-03-02T13:30:53;12.36;69.25
68257;DHT22;55069;51.568;4.656;2024-03-02T13:33:19;12.33;70.45
68257;DHT22;55069;51.568;4.656;2024-03-02T13:35:56;12.30;70.82
68257;DHT22;55069;51.568;4.656;2024-03-02T13:38:22;12.43;70.88
68257;DHT22;55069;51.568;4.656;2024-03-02T13:40:49;12.47;70.19
68257;DHT22;55069;51.568;4.656;2024-03-02T13:43:18;12.64;69.95
68257;DHT22;55069;51.568;4.656;2024-03-02T13:45:46;12.91;70.51
68257;DHT22;55069;51.568;4.656;2024-03-02T13:48:12;13.26;68.70
68257;DHT22;55069;51.568;4.656;2024-03-02T13:50:37;13.27;69.88
68257;DHT22;55069;51.568;4.656;2024-03-02T13:53:03;13.15;68.20
68257;DHT22;55069;51.568;4.656;2024-03-02T13:55:29;12.96;69.54
68257;DHT22;55069;51.568;4.656;2024-03-02T13:57:55;12.75;69.49
68257;DHT22;55069;51.568;4.656;2024-03-02T14:00:21;12.60;71.59
68257;DHT22;55069;51.568;4.656;2024-03-02T14:02:46;12.45;70.45
68257;DHT22;55069;51.568;4.656;2024-03-02T14:05:15;12.27;70.64
68257;DHT22;55069;51.568;4.656;2024-03-02T14:07:41;12.30;71.82
68257;DHT22;55069;51.568;4.656;2024-03-02T14:10:07;12.19;69.51
68257;DHT22;55069;51.568;4.656;2024-03-02T14:12:33;12.33;71.24
68257;DHT22;55069;51.568;4.656;2024-03-02T14:14:59;12.47;70.28
68257;DHT22;55069;51.568;4.656;2024-03-02T14:17:25;12.53;69.80
68257;DHT22;55069;51.568;4.656;2024-03-02T14:19:51;12.55;69.89
68257;DHT22;55069;51.568;4.656;2024-03-02T14:22:20;12.64;70.05
68257;DHT22;55069;51.568;4.656;2024-03-02T14:24:48;12.65;71.14
68257;DHT22;55069;51.568;4.656;2024-03-02T14:27:14;12.74;70.67
68257;DHT22;55069;51.568;4.656;2024-03-02T14:29:43;12.74;70.69
68257;DHT22;55069;51.568;4.656;2024-03-02T14:32:09;12.72;70.32
68257;DHT22;55069;51.568;4.656;2024-03-02T14:34:35;12.81;69.31
68257;DHT22;55069;51.568;4.656;2024-03-02T14:37:00;12.91;71.43
68257;DHT22;55069;51.568;4.656;2024-03-02T14:39:26;12.91;70.74
68257;DHT22;55069;51.568;4.656;2024-03-02T14:41:52;12.85;70.34
68257;DHT22;55069;51.568;4.656;2024-03-02T14:44:18;12.87;70.44
68257;DHT22;55069;51.568;4.656;2024-03-02T14:46:46;12.89;71.31
68257;DHT22;55069;51.568;4.656;2024-03-02T14:49:13;12.92;70.62
68257;DHT22;55069;51.568;4.656;2024-03-02T14:51:38;12.92;69.48
68257;DHT22;55069;51.568;4.656;2024-03-02T14:54:04;12.88;70.38
68257;DHT22;55069;51.568;4.656;2024-03-02T14:56:30;12.87;70.74
68257;DHT22;55069;51.568;4.656;2024-03-02T14:58:56;12.77;71.05
68257;DHT22;55069;51.568;4.656;2024-03-02T15:01:22;12.67;71.41
68257;DHT22;55069;51.568;4.656;2024-03-02T15:03:50;12.60;72.17
68257;DHT22;55069;51.568;4.656;2024-03-02T15:06:17;12.58;71.66
68257;DHT22;55069;51.568;4.656;2024-03-02T15:08:43;12.64;71.04
68257;DHT22;55069;51.568;4.656;2024-03-02T15:11:09;12.75;71.06
68257;DHT22;55069;51.568;4.656;2024-03-02T15:13:36;12.95;71.29
68257;DHT22;55069;51.568;4.656;2024-03-02T15:16:02;13.03;70.39
68257;DHT22;55069;51.568;4.656;2024-03-02T15:18:32;12.91;70.42
68257;DHT22;55069;51.568;4.656;2024-03-02T15:21:00;12.89;70.22
68257;DHT22;55069;51.568;4.656;2024-03-02T15:23:25;12.81;70.77
68257;DHT22;55069;51.568;4.656;2024-03-02T15:25:51;12.81;71.76
68257;DHT22;55069;51.568;4.656;2024-03-02T15:28:17;12.74;72.52
68257;DHT22;55069;51.568;4.656;2024-03-02T15:30:43;12.64;72.48
68257;DHT22;55069;51.568;4.656;2024-03-02T15:33:09;12.55;72.10
68257;DHT22;55069;51.568;4.656;2024-03-02T15:35:35;12.57;72.56
68257;DHT22;55069;51.568;4.656;2024-03-02T15:38:00;12.60;72.47
68257;DHT22;55069;51.568;4.656;2024-03-02T15:40:26;12.64;73.05
68257;DHT22;55069;51.568;4.656;2024-03-02T15:42:51;12.72;72.29
68257;DHT22;55069;51.568;4.656;2024-03-02T15:45:19;12.74;72.62